sensor_id;sensor_type;location;lat;lon;timestamp;P1;durP1;ratioP1;P2;durP2;ratioP2
2001;SDS011;1003;48.002;7.788;2024-01-27T00:01:06;6.93;;;3.77;;
2001;SDS011;1003;48.002;7.788;2024-01-27T00:03:33;6.27;;;3.40;;
2001;SDS011;1003;48.002;7.788;2024-01-27T00:06:02;4.67;;;3.70;;
2001;SDS011;1003;48.002;7.788;2024-01-27T00:08:29;5.67;;;3.83;;
2001;SDS011;1003;48.002;7.788;2024-01-27T00:10:56;4.60;;;3.37;;
2001;SDS011;1003;48.002;7.788;2024-01-27T00:13:23;5.60;;;3.80;;
2001;SDS011;1003;48.002;7.788;2024-01-27T00:15:49;6.47;;;3.77;;
2001;SDS011;1003;48.002;7.788;2024-01-27T00:18:19;6.37;;;4.30;;
2001;SDS011;1003;48.002;7.788;2024-01-27T00:20:46;7.07;;;4.27;;
2001;SDS011;1003;48.002;7.788;2024-01-27T00:23:14;8.67;;;5.20;;
2001;SDS011;1003;48.002;7.788;2024-01-27T00:25:41;8.27;;;5.07;;
2001;SDS011;1003;48.002;7.788;2024-01-27T00:28:08;7.23;;;5.37;;
2001;SDS011;1003;48.002;7.788;2024-01-27T00:30:35;5.93;;;4.57;;
2001;SDS011;1003;48.002;7.788;2024-01-27T00:33:02;6.93;;;4.53;;
2001;SDS011;1003;48.002;7.788;2024-01-27T00:35:30;6.10;;;4.40;;
2001;SDS011;1003;48.002;7.788;2024-01-27T00:37:57;7.60;;;4.13;;
2001;SDS011;1003;48.002;7.788;2024-01-27T00:40:25;7.17;;;4.03;;
2001;SDS011;1003;48.002;7.788;2024-01-27T00:42:52;6.00;;;4.90;;
2001;SDS011;1003;48.002;7.788;2024-01-27T00:45:20;6.87;;;5.13;;
2001;SDS011;1003;48.002;7.788;2024-01-27T00:47:47;8.43;;;5.27;;
2001;SDS011;1003;48.002;7.788;2024-01-27T00:50:15;8.77;;;5.53;;
2001;SDS011;1003;48.002;7.788;2024-01-27T00:52:42;8.50;;;5.13;;
2001;SDS011;1003;48.002;7.788;2024-01-27T00:55:09;9.10;;;5.27;;
2001;SDS011;1003;48.002;7.788;2024-01-27T00:57:37;7.27;;;4.70;;
2001;SDS011;1003;48.002;7.788;2024-01-27T01:00:05;7.83;;;5.37;;
2001;SDS011;1003;48.002;7.788;2024-01-27T01:02:34;8.80;;;5.27;;
2001;SDS011;1003;48.002;7.788;2024-01-27T01:05:03;7.77;;;4.90;;
2001;SDS011;1003;48.002;7.788;2024-01-27T01:07:31;8.47;;;4.83;;
2001;SDS011;1003;48.002;7.788;2024-01-27T01:09:58;8.63;;;4.90;;
2001;SDS011;1003;48.002;7.788;2024-01-27T01:12:25;6.97;;;4.90;;
2001;SDS011;1003;48.002;7.788;2024-01-27T01:14:53;8.47;;;5.67;;
2001;SDS011;1003;48.002;7.788;2024-01-27T01:17:21;8.77;;;5.83;;
2001;SDS011;1003;48.002;7.788;2024-01-27T01:19:48;8.93;;;5.43;;
2001;SDS011;1003;48.002;7.788;2024-01-27T01:22:15;7.00;;;5.00;;
2001;SDS011;1003;48.002;7.788;2024-01-27T01:24:42;9.00;;;5.17;;
2001;SDS011;1003;48.002;7.788;2024-01-27T01:27:11;9.50;;;5.37;;
2001;SDS011;1003;48.002;7.788;2024-01-27T01:29:37;10.87;;;6.03;;
2001;SDS011;1003;48.002;7.788;2024-01-27T01:32:06;10.47;;;6.17;;
2001;SDS011;1003;48.002;7.788;2024-01-27T01:34:33;9.67;;;5.70;;
2001;SDS011;1003;48.002;7.788;2024-01-27T01:37:00;9.27;;;6.43;;
2001;SDS011;1003;48.002;7.788;2024-01-27T01:39:28;9.23;;;5.93;;
2001;SDS011;1003;48.002;7.788;2024-01-27T01:41:54;10.27;;;5.40;;
2001;SDS011;1003;48.002;7.788;2024-01-27T01:44:22;10.10;;;6.30;;
2001;SDS011;1003;48.002;7.788;2024-01-27T01:46:52;10.17;;;6.70;;
2001;SDS011;1003;48.002;7.788;2024-01-27T01:49:20;11.83;;;6.70;;
2001;SDS011;1003;48.002;7.788;2024-01-27T01:51:47;16.93;;;7.80;;
2001;SDS011;1003;48.002;7.788;2024-01-27T01:54:14;12.87;;;7.63;;
2001;SDS011;1003;48.002;7.788;2024-01-27T01:56:42;14.03;;;7.90;;
2001;SDS011;1003;48.002;7.788;2024-01-27T01:59:09;12.77;;;7.60;;
2001;SDS011;1003;48.002;7.788;2024-01-27T02:01:36;14.03;;;7.27;;
2001;SDS011;1003;48.002;7.788;2024-01-27T02:04:04;11.67;;;7.13;;
2001;SDS011;1003;48.002;7.788;2024-01-27T02:06:32;13.00;;;7.60;;
2001;SDS011;1003;48.002;7.788;2024-01-27T02:08:59;10.57;;;7.37;;
2001;SDS011;1003;48.002;7.788;2024-01-27T02:11:26;12.23;;;7.60;;
2001;SDS011;1003;48.002;7.788;2024-01-27T02:13:53;12.43;;;7.40;;
2001;SDS011;1003;48.002;7.788;2024-01-27T02:16:20;12.37;;;7.17;;
2001;SDS011;1003;48.002;7.788;2024-01-27T02:18:47;14.13;;;8.30;;
2001;SDS011;1003;48.002;7.788;2024-01-27T02:21:14;12.90;;;7.13;;
2001;SDS011;1003;48.002;7.788;2024-01-27T02:23:42;12.23;;;7.23;;
2001;SDS011;1003;48.002;7.788;2024-01-27T02:26:10;11.37;;;6.90;;
2001;SDS011;1003;48.002;7.788;2024-01-27T02:28:37;11.43;;;7.10;;
2001;SDS011;1003;48.002;7.788;2024-01-27T02:31:04;9.67;;;6.27;;
2001;SDS011;1003;48.002;7.788;2024-01-27T02:33:31;13.00;;;6.77;;
2001;SDS011;1003;48.002;7.788;2024-01-27T02:35:58;11.73;;;6.83;;
2001;SDS011;1003;48.002;7.788;2024-01-27T02:38:25;13.33;;;7.37;;
2001;SDS011;1003;48.002;7.788;2024-01-27T02:40:52;11.53;;;7.23;;
2001;SDS011;1003;48.002;7.788;2024-01-27T02:43:20;11.43;;;7.70;;
2001;SDS011;1003;48.002;7.788;2024-01-27T02:45:47;14.23;;;7.30;;
2001;SDS011;1003;48.002;7.788;2024-01-27T02:48:14;8.60;;;6.47;;
2001;SDS011;1003;48.002;7.788;2024-01-27T02:50:41;12.37;;;7.93;;
2001;SDS011;1003;48.002;7.788;2024-01-27T02:53:08;14.10;;;7.87;;
2001;SDS011;1003;48.002;7.788;2024-01-27T02:55:34;12.30;;;8.30;;
2001;SDS011;1003;48.002;7.788;2024-01-27T02:58:01;15.53;;;8.50;;
2001;SDS011;1003;48.002;7.788;2024-01-27T03:00:29;10.40;;;7.40;;
2001;SDS011;1003;48.002;7.788;2024-01-27T03:02:56;15.37;;;9.63;;
2001;SDS011;1003;48.002;7.788;2024-01-27T03:05:23;16.47;;;10.03;;
2001;SDS011;1003;48.002;7.788;2024-01-27T03:07:50;17.33;;;11.37;;
2001;SDS011;1003;48.002;7.788;2024-01-27T03:10:17;21.63;;;15.07;;
2001;SDS011;1003;48.002;7.788;2024-01-27T03:12:44;20.03;;;12.93;;
2001;SDS011;1003;48.002;7.788;2024-01-27T03:15:11;18.67;;;12.47;;
2001;SDS011;1003;48.002;7.788;2024-01-27T03:17:40;22.67;;;14.57;;
2001;SDS011;1003;48.002;7.788;2024-01-27T03:20:07;26.00;;;17.10;;
2001;SDS011;1003;48.002;7.788;2024-01-27T03:22:35;25.07;;;16.57;;
2001;SDS011;1003;48.002;7.788;2024-01-27T03:25:02;26.43;;;15.90;;
2001;SDS011;1003;48.002;7.788;2024-01-27T03:27:30;21.03;;;13.83;;
2001;SDS011;1003;48.002;7.788;2024-01-27T03:29:58;21.40;;;13.47;;
2001;SDS011;1003;48.002;7.788;2024-01-27T03:32:28;21.23;;;13.33;;
2001;SDS011;1003;48.002;7.788;2024-01-27T03:34:58;22.03;;;13.33;;
2001;SDS011;1003;48.002;7.788;2024-01-27T03:37:25;23.13;;;14.90;;
2001;SDS011;1003;48.002;7.788;2024-01-27T03:39:52;28.00;;;18.30;;
2001;SDS011;1003;48.002;7.788;2024-01-27T03:42:19;24.47;;;15.60;;
2001;SDS011;1003;48.002;7.788;2024-01-27T03:44:46;21.03;;;13.37;;
2001;SDS011;1003;48.002;7.788;2024-01-27T03:47:13;19.97;;;12.90;;
2001;SDS011;1003;48.002;7.788;2024-01-27T03:49:40;18.03;;;12.10;;
2001;SDS011;1003;48.002;7.788;2024-01-27T03:52:08;16.73;;;11.27;;
2001;SDS011;1003;48.002;7.788;2024-01-27T03:54:37;13.93;;;9.53;;
2001;SDS011;1003;48.002;7.788;2024-01-27T03:57:04;13.47;;;8.60;;
2001;SDS011;1003;48.002;7.788;2024-01-27T03:59:31;16.60;;;11.00;;
2001;SDS011;1003;48.002;7.788;2024-01-27T04:01:58;11.07;;;7.53;;
2001;SDS011;1003;48.002;7.788;2024-01-27T04:04:25;7.37;;;5.10;;
2001;SDS011;1003;48.002;7.788;2024-01-27T04:06:52;6.83;;;4.80;;
2001;SDS011;1003;48.002;7.788;2024-01-27T04:09:20;8.23;;;4.73;;
2001;SDS011;1003;48.002;7.788;2024-01-27T04:11:48;6.77;;;4.27;;
2001;SDS011;1003;48.002;7.788;2024-01-27T04:14:15;7.00;;;4.03;;
2001;SDS011;1003;48.002;7.788;2024-01-27T04:16:43;7.93;;;4.43;;
2001;SDS011;1003;48.002;7.788;2024-01-27T04:19:10;7.57;;;3.77;;
2001;SDS011;1003;48.002;7.788;2024-01-27T04:21:37;5.57;;;3.23;;
2001;SDS011;1003;48.002;7.788;2024-01-27T04:24:04;6.33;;;3.90;;
2001;SDS011;1003;48.002;7.788;2024-01-27T04:26:33;6.30;;;3.90;;
2001;SDS011;1003;48.002;7.788;2024-01-27T04:28:59;7.30;;;4.00;;
2001;SDS011;1003;48.002;7.788;2024-01-27T04:31:26;7.90;;;4.33;;
2001;SDS011;1003;48.002;7.788;2024-01-27T04:33:56;8.07;;;4.80;;
2001;SDS011;1003;48.002;7.788;2024-01-27T04:36:26;8.10;;;4.93;;
2001;SDS011;1003;48.002;7.788;2024-01-27T04:38:54;10.03;;;5.47;;
2001;SDS011;1003;48.002;7.788;2024-01-27T04:41:21;13.03;;;8.10;;
2001;SDS011;1003;48.002;7.788;2024-01-27T04:43:49;14.83;;;9.40;;
2001;SDS011;1003;48.002;7.788;2024-01-27T04:46:18;15.53;;;9.40;;
2001;SDS011;1003;48.002;7.788;2024-01-27T04:48:45;16.13;;;9.23;;
2001;SDS011;1003;48.002;7.788;2024-01-27T04:51:12;18.13;;;9.73;;
2001;SDS011;1003;48.002;7.788;2024-01-27T04:53:39;13.63;;;8.17;;
2001;SDS011;1003;48.002;7.788;2024-01-27T04:56:06;12.23;;;6.83;;
2001;SDS011;1003;48.002;7.788;2024-01-27T04:58:34;9.10;;;5.97;;
2001;SDS011;1003;48.002;7.788;2024-01-27T05:01:04;14.87;;;8.27;;
2001;SDS011;1003;48.002;7.788;2024-01-27T05:03:31;12.93;;;7.97;;
2001;SDS011;1003;48.002;7.788;2024-01-27T05:05:58;16.43;;;8.47;;
2001;SDS011;1003;48.002;7.788;2024-01-27T05:08:25;10.17;;;6.60;;
2001;SDS011;1003;48.002;7.788;2024-01-27T05:10:52;27.77;;;7.73;;
2001;SDS011;1003;48.002;7.788;2024-01-27T05:13:19;9.90;;;7.10;;
2001;SDS011;1003;48.002;7.788;2024-01-27T05:15:46;12.10;;;7.37;;
2001;SDS011;1003;48.002;7.788;2024-01-27T05:18:14;11.43;;;7.67;;
2001;SDS011;1003;48.002;7.788;2024-01-27T05:20:41;12.10;;;8.17;;
2001;SDS011;1003;48.002;7.788;2024-01-27T05:23:08;13.70;;;7.80;;
2001;SDS011;1003;48.002;7.788;2024-01-27T05:25:34;11.07;;;7.40;;
2001;SDS011;1003;48.002;7.788;2024-01-27T05:28:01;9.33;;;6.87;;
2001;SDS011;1003;48.002;7.788;2024-01-27T05:30:28;11.53;;;7.23;;
2001;SDS011;1003;48.002;7.788;2024-01-27T05:32:54;11.10;;;5.80;;
2001;SDS011;1003;48.002;7.788;2024-01-27T05:35:23;8.07;;;4.80;;
2001;SDS011;1003;48.002;7.788;2024-01-27T05:37:50;7.40;;;4.60;;
2001;SDS011;1003;48.002;7.788;2024-01-27T05:40:19;8.13;;;5.00;;
2001;SDS011;1003;48.002;7.788;2024-01-27T05:42:45;7.43;;;4.77;;
2001;SDS011;1003;48.002;7.788;2024-01-27T05:45:14;6.20;;;4.20;;
2001;SDS011;1003;48.002;7.788;2024-01-27T05:47:41;5.73;;;3.97;;
2001;SDS011;1003;48.002;7.788;2024-01-27T05:50:08;6.70;;;4.27;;
2001;SDS011;1003;48.002;7.788;2024-01-27T05:52:37;6.37;;;4.07;;
2001;SDS011;1003;48.002;7.788;2024-01-27T05:55:04;6.90;;;4.07;;
2001;SDS011;1003;48.002;7.788;2024-01-27T05:57:33;5.77;;;4.00;;
2001;SDS011;1003;48.002;7.788;2024-01-27T06:00:00;6.17;;;3.77;;
2001;SDS011;1003;48.002;7.788;2024-01-27T06:02:27;4.00;;;3.07;;
2001;SDS011;1003;48.002;7.788;2024-01-27T06:04:54;5.63;;;3.60;;
2001;SDS011;1003;48.002;7.788;2024-01-27T06:07:21;4.87;;;3.47;;
2001;SDS011;1003;48.002;7.788;2024-01-27T06:09:49;5.03;;;3.63;;
2001;SDS011;1003;48.002;7.788;2024-01-27T06:12:16;4.63;;;3.70;;
2001;SDS011;1003;48.002;7.788;2024-01-27T06:14:44;5.97;;;3.97;;
2001;SDS011;1003;48.002;7.788;2024-01-27T06:17:11;6.47;;;3.80;;
2001;SDS011;1003;48.002;7.788;2024-01-27T06:19:39;4.43;;;3.30;;
2001;SDS011;1003;48.002;7.788;2024-01-27T06:22:06;4.53;;;3.37;;
2001;SDS011;1003;48.002;7.788;2024-01-27T06:24:33;5.50;;;3.63;;
2001;SDS011;1003;48.002;7.788;2024-01-27T06:27:02;6.60;;;3.93;;
2001;SDS011;1003;48.002;7.788;2024-01-27T06:29:29;5.60;;;3.50;;
2001;SDS011;1003;48.002;7.788;2024-01-27T06:31:55;4.73;;;3.27;;
2001;SDS011;1003;48.002;7.788;2024-01-27T06:34:22;8.63;;;4.07;;
2001;SDS011;1003;48.002;7.788;2024-01-27T06:36:49;5.67;;;4.07;;
2001;SDS011;1003;48.002;7.788;2024-01-27T06:39:16;4.73;;;3.57;;
2001;SDS011;1003;48.002;7.788;2024-01-27T06:41:43;7.03;;;3.97;;
2001;SDS011;1003;48.002;7.788;2024-01-27T06:44:11;5.73;;;3.53;;
2001;SDS011;1003;48.002;7.788;2024-01-27T06:46:38;6.83;;;3.60;;
2001;SDS011;1003;48.002;7.788;2024-01-27T06:49:05;5.27;;;4.00;;
2001;SDS011;1003;48.002;7.788;2024-01-27T06:51:32;4.67;;;3.37;;
2001;SDS011;1003;48.002;7.788;2024-01-27T06:53:59;6.20;;;4.07;;
2001;SDS011;1003;48.002;7.788;2024-01-27T06:56:26;6.13;;;3.80;;
2001;SDS011;1003;48.002;7.788;2024-01-27T06:58:53;6.47;;;4.07;;
2001;SDS011;1003;48.002;7.788;2024-01-27T07:01:21;6.60;;;3.90;;
2001;SDS011;1003;48.002;7.788;2024-01-27T07:03:48;7.63;;;3.73;;
2001;SDS011;1003;48.002;7.788;2024-01-27T07:06:15;5.60;;;3.40;;
2001;SDS011;1003;48.002;7.788;2024-01-27T07:08:42;7.30;;;3.60;;
2001;SDS011;1003;48.002;7.788;2024-01-27T07:11:09;5.60;;;3.57;;
2001;SDS011;1003;48.002;7.788;2024-01-27T07:13:37;5.97;;;3.60;;
2001;SDS011;1003;48.002;7.788;2024-01-27T07:16:04;5.43;;;3.73;;
2001;SDS011;1003;48.002;7.788;2024-01-27T07:18:33;6.33;;;3.97;;
2001;SDS011;1003;48.002;7.788;2024-01-27T07:21:00;7.83;;;4.10;;
2001;SDS011;1003;48.002;7.788;2024-01-27T07:23:27;8.17;;;4.30;;
2001;SDS011;1003;48.002;7.788;2024-01-27T07:25:54;8.87;;;4.37;;
2001;SDS011;1003;48.002;7.788;2024-01-27T07:28:22;7.50;;;4.40;;
2001;SDS011;1003;48.002;7.788;2024-01-27T07:30:49;11.10;;;5.03;;
2001;SDS011;1003;48.002;7.788;2024-01-27T07:33:16;9.60;;;4.73;;
2001;SDS011;1003;48.002;7.788;2024-01-27T07:35:44;6.97;;;4.03;;
2001;SDS011;1003;48.002;7.788;2024-01-27T07:38:11;10.63;;;4.67;;
2001;SDS011;1003;48.002;7.788;2024-01-27T07:40:38;9.13;;;4.40;;
2001;SDS011;1003;48.002;7.788;2024-01-27T07:43:05;8.20;;;4.90;;
2001;SDS011;1003;48.002;7.788;2024-01-27T07:45:32;9.43;;;4.43;;
2001;SDS011;1003;48.002;7.788;2024-01-27T07:47:59;9.17;;;4.60;;
2001;SDS011;1003;48.002;7.788;2024-01-27T07:50:26;9.30;;;4.17;;
2001;SDS011;1003;48.002;7.788;2024-01-27T07:52:54;7.50;;;4.50;;
2001;SDS011;1003;48.002;7.788;2024-01-27T07:55:21;7.97;;;4.60;;
2001;SDS011;1003;48.002;7.788;2024-01-27T07:57:48;6.40;;;4.03;;
2001;SDS011;1003;48.002;7.788;2024-01-27T08:00:15;7.77;;;4.13;;
2001;SDS011;1003;48.002;7.788;2024-01-27T08:02:43;6.43;;;4.20;;
2001;SDS011;1003;48.002;7.788;2024-01-27T08:05:10;7.70;;;4.20;;
2001;SDS011;1003;48.002;7.788;2024-01-27T08:07:37;10.63;;;5.37;;
2001;SDS011;1003;48.002;7.788;2024-01-27T08:10:06;9.43;;;5.20;;
2001;SDS011;1003;48.002;7.788;2024-01-27T08:12:36;12.87;;;7.20;;
2001;SDS011;1003;48.002;7.788;2024-01-27T08:15:03;10.60;;;6.50;;
2001;SDS011;1003;48.002;7.788;2024-01-27T08:17:32;13.23;;;6.50;;
2001;SDS011;1003;48.002;7.788;2024-01-27T08:19:59;10.57;;;6.83;;
2001;SDS011;1003;48.002;7.788;2024-01-27T08:22:26;10.43;;;5.80;;
2001;SDS011;1003;48.002;7.788;2024-01-27T08:24:54;8.50;;;5.20;;
2001;SDS011;1003;48.002;7.788;2024-01-27T08:27:22;9.77;;;5.77;;
2001;SDS011;1003;48.002;7.788;2024-01-27T08:29:49;12.70;;;6.53;;
2001;SDS011;1003;48.002;7.788;2024-01-27T08:32:16;9.83;;;5.27;;
2001;SDS011;1003;48.002;7.788;2024-01-27T08:34:43;11.27;;;5.73;;
2001;SDS011;1003;48.002;7.788;2024-01-27T08:37:14;10.00;;;5.57;;
2001;SDS011;1003;48.002;7.788;2024-01-27T08:39:44;8.10;;;5.17;;
2001;SDS011;1003;48.002;7.788;2024-01-27T08:42:11;10.07;;;5.87;;
2001;SDS011;1003;48.002;7.788;2024-01-27T08:44:40;10.23;;;6.70;;
2001;SDS011;1003;48.002;7.788;2024-01-27T08:47:07;9.37;;;6.20;;
2001;SDS011;1003;48.002;7.788;2024-01-27T08:49:34;12.20;;;6.17;;
2001;SDS011;1003;48.002;7.788;2024-01-27T08:52:01;9.37;;;5.97;;
2001;SDS011;1003;48.002;7.788;2024-01-27T08:54:28;11.23;;;6.47;;
2001;SDS011;1003;48.002;7.788;2024-01-27T08:56:56;15.87;;;8.20;;
2001;SDS011;1003;48.002;7.788;2024-01-27T08:59:22;8.93;;;5.33;;
2001;SDS011;1003;48.002;7.788;2024-01-27T09:01:51;9.63;;;5.73;;
2001;SDS011;1003;48.002;7.788;2024-01-27T09:04:18;8.53;;;5.30;;
2001;SDS011;1003;48.002;7.788;2024-01-27T09:06:44;10.97;;;6.23;;
2001;SDS011;1003;48.002;7.788;2024-01-27T09:09:11;9.90;;;6.00;;
2001;SDS011;1003;48.002;7.788;2024-01-27T09:11:38;8.87;;;6.13;;
2001;SDS011;1003;48.002;7.788;2024-01-27T09:14:05;9.00;;;6.20;;
2001;SDS011;1003;48.002;7.788;2024-01-27T09:16:32;10.80;;;6.23;;
2001;SDS011;1003;48.002;7.788;2024-01-27T09:19:01;12.33;;;7.90;;
2001;SDS011;1003;48.002;7.788;2024-01-27T09:21:28;11.87;;;7.20;;
2001;SDS011;1003;48.002;7.788;2024-01-27T09:23:55;13.23;;;6.43;;
2001;SDS011;1003;48.002;7.788;2024-01-27T09:26:22;11.73;;;7.00;;
2001;SDS011;1003;48.002;7.788;2024-01-27T09:28:49;11.83;;;6.67;;
2001;SDS011;1003;48.002;7.788;2024-01-27T09:31:19;13.33;;;7.57;;
2001;SDS011;1003;48.002;7.788;2024-01-27T09:33:48;16.17;;;7.90;;
2001;SDS011;1003;48.002;7.788;2024-01-27T09:36:17;18.63;;;10.40;;
2001;SDS011;1003;48.002;7.788;2024-01-27T09:38:44;11.37;;;7.90;;
2001;SDS011;1003;48.002;7.788;2024-01-27T09:41:12;15.00;;;8.97;;
2001;SDS011;1003;48.002;7.788;2024-01-27T09:43:41;15.27;;;8.43;;
2001;SDS011;1003;48.002;7.788;2024-01-27T09:46:11;14.63;;;7.60;;
2001;SDS011;1003;48.002;7.788;2024-01-27T09:48:38;13.47;;;7.70;;
2001;SDS011;1003;48.002;7.788;2024-01-27T09:51:06;14.37;;;8.20;;
2001;SDS011;1003;48.002;7.788;2024-01-27T09:53:37;10.53;;;5.27;;
2001;SDS011;1003;48.002;7.788;2024-01-27T09:56:04;13.50;;;4.40;;
2001;SDS011;1003;48.002;7.788;2024-01-27T09:58:32;10.17;;;4.27;;
2001;SDS011;1003;48.002;7.788;2024-01-27T10:01:00;10.83;;;4.77;;
2001;SDS011;1003;48.002;7.788;2024-01-27T10:03:27;8.83;;;4.20;;
2001;SDS011;1003;48.002;7.788;2024-01-27T10:05:56;6.57;;;3.63;;
2001;SDS011;1003;48.002;7.788;2024-01-27T10:08:23;8.20;;;3.30;;
2001;SDS011;1003;48.002;7.788;2024-01-27T10:10:53;6.40;;;3.33;;
2001;SDS011;1003;48.002;7.788;2024-01-27T10:13:22;5.00;;;2.87;;
2001;SDS011;1003;48.002;7.788;2024-01-27T10:15:59;5.77;;;3.10;;
2001;SDS011;1003;48.002;7.788;2024-01-27T10:18:27;4.67;;;3.00;;
2001;SDS011;1003;48.002;7.788;2024-01-27T10:20:54;6.83;;;3.30;;
2001;SDS011;1003;48.002;7.788;2024-01-27T10:23:21;7.60;;;3.20;;
2001;SDS011;1003;48.002;7.788;2024-01-27T10:25:49;6.50;;;3.50;;
2001;SDS011;1003;48.002;7.788;2024-01-27T10:28:18;3.50;;;2.70;;
2001;SDS011;1003;48.002;7.788;2024-01-27T10:30:45;6.47;;;3.30;;
2001;SDS011;1003;48.002;7.788;2024-01-27T10:33:13;5.67;;;2.97;;
2001;SDS011;1003;48.002;7.788;2024-01-27T10:35:40;5.53;;;3.20;;
2001;SDS011;1003;48.002;7.788;2024-01-27T10:38:08;4.47;;;2.90;;
2001;SDS011;1003;48.002;7.788;2024-01-27T10:40:36;6.43;;;2.87;;
2001;SDS011;1003;48.002;7.788;2024-01-27T10:43:03;4.90;;;3.07;;
2001;SDS011;1003;48.002;7.788;2024-01-27T10:45:35;4.23;;;2.67;;
2001;SDS011;1003;48.002;7.788;2024-01-27T10:48:05;5.20;;;3.17;;
2001;SDS011;1003;48.002;7.788;2024-01-27T10:50:35;4.33;;;3.10;;
2001;SDS011;1003;48.002;7.788;2024-01-27T10:53:05;5.20;;;3.20;;
2001;SDS011;1003;48.002;7.788;2024-01-27T10:55:41;5.47;;;3.00;;
2001;SDS011;1003;48.002;7.788;2024-01-27T10:58:12;5.93;;;2.90;;
2001;SDS011;1003;48.002;7.788;2024-01-27T11:00:42;4.93;;;2.60;;
2001;SDS011;1003;48.002;7.788;2024-01-27T11:03:14;4.10;;;2.70;;
2001;SDS011;1003;48.002;7.788;2024-01-27T11:05:44;6.73;;;2.90;;
2001;SDS011;1003;48.002;7.788;2024-01-27T11:08:13;6.67;;;3.10;;
2001;SDS011;1003;48.002;7.788;2024-01-27T11:10:42;6.77;;;2.90;;
2001;SDS011;1003;48.002;7.788;2024-01-27T11:13:09;5.33;;;3.20;;
2001;SDS011;1003;48.002;7.788;2024-01-27T11:15:38;4.07;;;3.07;;
2001;SDS011;1003;48.002;7.788;2024-01-27T11:18:06;4.17;;;2.93;;
2001;SDS011;1003;48.002;7.788;2024-01-27T11:20:34;7.57;;;3.40;;
2001;SDS011;1003;48.002;7.788;2024-01-27T11:23:08;5.77;;;3.10;;
2001;SDS011;1003;48.002;7.788;2024-01-27T11:25:36;5.67;;;3.03;;
2001;SDS011;1003;48.002;7.788;2024-01-27T11:28:10;4.67;;;2.90;;
2001;SDS011;1003;48.002;7.788;2024-01-27T11:30:38;7.13;;;3.43;;
2001;SDS011;1003;48.002;7.788;2024-01-27T11:33:07;5.07;;;3.17;;
2001;SDS011;1003;48.002;7.788;2024-01-27T11:35:35;6.33;;;3.30;;
2001;SDS011;1003;48.002;7.788;2024-01-27T11:38:02;4.80;;;2.90;;
2001;SDS011;1003;48.002;7.788;2024-01-27T11:40:30;5.23;;;2.70;;
2001;SDS011;1003;48.002;7.788;2024-01-27T11:42:58;6.30;;;3.87;;
2001;SDS011;1003;48.002;7.788;2024-01-27T11:45:27;5.80;;;3.47;;
2001;SDS011;1003;48.002;7.788;2024-01-27T11:47:57;7.17;;;3.40;;
2001;SDS011;1003;48.002;7.788;2024-01-27T11:50:27;4.70;;;3.03;;
2001;SDS011;1003;48.002;7.788;2024-01-27T11:52:54;4.60;;;2.67;;
2001;SDS011;1003;48.002;7.788;2024-01-27T11:55:22;4.17;;;2.50;;
2001;SDS011;1003;48.002;7.788;2024-01-27T11:57:49;4.47;;;2.60;;
2001;SDS011;1003;48.002;7.788;2024-01-27T12:00:16;4.10;;;2.63;;
2001;SDS011;1003;48.002;7.788;2024-01-27T12:02:44;3.53;;;2.50;;
2001;SDS011;1003;48.002;7.788;2024-01-27T12:05:11;7.20;;;2.77;;
2001;SDS011;1003;48.002;7.788;2024-01-27T12:07:39;4.73;;;2.70;;
2001;SDS011;1003;48.002;7.788;2024-01-27T12:10:06;4.67;;;2.53;;
2001;SDS011;1003;48.002;7.788;2024-01-27T12:12:36;5.63;;;2.60;;
2001;SDS011;1003;48.002;7.788;2024-01-27T12:15:03;4.97;;;2.87;;
2001;SDS011;1003;48.002;7.788;2024-01-27T12:17:31;6.80;;;2.90;;
2001;SDS011;1003;48.002;7.788;2024-01-27T12:19:59;6.93;;;3.10;;
2001;SDS011;1003;48.002;7.788;2024-01-27T12:22:26;9.40;;;4.00;;
2001;SDS011;1003;48.002;7.788;2024-01-27T12:25:07;4.83;;;3.00;;
2001;SDS011;1003;48.002;7.788;2024-01-27T12:27:37;4.67;;;2.90;;
2001;SDS011;1003;48.002;7.788;2024-01-27T12:30:06;3.87;;;2.47;;
2001;SDS011;1003;48.002;7.788;2024-01-27T12:32:34;5.63;;;2.73;;
2001;SDS011;1003;48.002;7.788;2024-01-27T12:35:04;6.83;;;2.77;;
2001;SDS011;1003;48.002;7.788;2024-01-27T12:37:31;5.97;;;3.10;;
2001;SDS011;1003;48.002;7.788;2024-01-27T12:39:59;4.30;;;2.57;;
2001;SDS011;1003;48.002;7.788;2024-01-27T12:42:26;4.13;;;2.87;;
2001;SDS011;1003;48.002;7.788;2024-01-27T12:44:53;5.70;;;2.60;;
2001;SDS011;1003;48.002;7.788;2024-01-27T12:47:20;3.50;;;2.57;;
2001;SDS011;1003;48.002;7.788;2024-01-27T12:49:47;5.87;;;3.00;;
2001;SDS011;1003;48.002;7.788;2024-01-27T12:52:14;4.17;;;2.60;;
2001;SDS011;1003;48.002;7.788;2024-01-27T12:54:41;4.27;;;2.20;;
2001;SDS011;1003;48.002;7.788;2024-01-27T12:57:10;4.00;;;2.30;;
2001;SDS011;1003;48.002;7.788;2024-01-27T12:59:38;4.27;;;2.23;;
2001;SDS011;1003;48.002;7.788;2024-01-27T13:02:05;3.17;;;2.30;;
2001;SDS011;1003;48.002;7.788;2024-01-27T13:04:33;6.23;;;2.83;;
2001;SDS011;1003;48.002;7.788;2024-01-27T13:07:00;5.87;;;3.30;;
2001;SDS011;1003;48.002;7.788;2024-01-27T13:09:27;7.07;;;3.30;;
2001;SDS011;1003;48.002;7.788;2024-01-27T13:11:54;6.40;;;3.73;;
2001;SDS011;1003;48.002;7.788;2024-01-27T13:14:22;5.77;;;2.90;;
2001;SDS011;1003;48.002;7.788;2024-01-27T13:16:49;4.07;;;2.83;;
2001;SDS011;1003;48.002;7.788;2024-01-27T13:19:18;7.70;;;3.10;;
2001;SDS011;1003;48.002;7.788;2024-01-27T13:21:45;6.60;;;3.87;;
2001;SDS011;1003;48.002;7.788;2024-01-27T13:24:12;7.50;;;2.97;;
2001;SDS011;1003;48.002;7.788;2024-01-27T13:26:39;7.97;;;3.20;;
2001;SDS011;1003;48.002;7.788;2024-01-27T13:29:06;8.17;;;3.73;;
2001;SDS011;1003;48.002;7.788;2024-01-27T13:31:35;9.33;;;5.10;;
2001;SDS011;1003;48.002;7.788;2024-01-27T13:34:01;6.43;;;3.57;;
2001;SDS011;1003;48.002;7.788;2024-01-27T13:36:29;6.07;;;3.37;;
2001;SDS011;1003;48.002;7.788;2024-01-27T13:38:56;6.93;;;3.67;;
2001;SDS011;1003;48.002;7.788;2024-01-27T13:41:23;5.30;;;2.97;;
2001;SDS011;1003;48.002;7.788;2024-01-27T13:43:51;6.00;;;2.87;;
2001;SDS011;1003;48.002;7.788;2024-01-27T13:46:18;6.57;;;2.70;;
2001;SDS011;1003;48.002;7.788;2024-01-27T13:48:46;7.93;;;3.10;;
2001;SDS011;1003;48.002;7.788;2024-01-27T13:51:14;5.67;;;2.53;;
2001;SDS011;1003;48.002;7.788;2024-01-27T13:53:41;5.10;;;2.87;;
2001;SDS011;1003;48.002;7.788;2024-01-27T13:56:08;5.13;;;2.60;;
2001;SDS011;1003;48.002;7.788;2024-01-27T13:58:35;5.30;;;2.73;;
2001;SDS011;1003;48.002;7.788;2024-01-27T14:01:03;6.37;;;3.00;;
2001;SDS011;1003;48.002;7.788;2024-01-27T14:03:30;6.07;;;2.70;;
2001;SDS011;1003;48.002;7.788;2024-01-27T14:05:58;5.97;;;2.50;;
2001;SDS011;1003;48.002;7.788;2024-01-27T14:08:25;4.30;;;2.20;;
2001;SDS011;1003;48.002;7.788;2024-01-27T14:10:52;6.70;;;2.50;;
2001;SDS011;1003;48.002;7.788;2024-01-27T14:13:19;5.50;;;2.57;;
2001;SDS011;1003;48.002;7.788;2024-01-27T14:15:47;5.10;;;2.40;;
2001;SDS011;1003;48.002;7.788;2024-01-27T14:18:14;4.67;;;2.40;;
2001;SDS011;1003;48.002;7.788;2024-01-27T14:20:45;6.77;;;2.47;;
2001;SDS011;1003;48.002;7.788;2024-01-27T14:23:14;3.47;;;2.00;;
2001;SDS011;1003;48.002;7.788;2024-01-27T14:25:41;3.57;;;2.10;;
2001;SDS011;1003;48.002;7.788;2024-01-27T14:28:08;6.63;;;2.43;;
2001;SDS011;1003;48.002;7.788;2024-01-27T14:30:36;5.43;;;2.63;;
2001;SDS011;1003;48.002;7.788;2024-01-27T14:33:04;4.87;;;2.40;;
2001;SDS011;1003;48.002;7.788;2024-01-27T14:35:31;6.90;;;2.60;;
2001;SDS011;1003;48.002;7.788;2024-01-27T14:37:59;6.33;;;2.50;;
2001;SDS011;1003;48.002;7.788;2024-01-27T14:40:27;5.33;;;2.47;;
2001;SDS011;1003;48.002;7.788;2024-01-27T14:42:56;6.03;;;2.27;;
2001;SDS011;1003;48.002;7.788;2024-01-27T14:45:23;4.50;;;2.30;;
2001;SDS011;1003;48.002;7.788;2024-01-27T14:47:50;5.03;;;2.30;;
2001;SDS011;1003;48.002;7.788;2024-01-27T14:50:17;5.57;;;2.37;;
2001;SDS011;1003;48.002;7.788;2024-01-27T14:52:44;5.27;;;2.73;;
2001;SDS011;1003;48.002;7.788;2024-01-27T14:55:12;4.50;;;2.77;;
2001;SDS011;1003;48.002;7.788;2024-01-27T14:57:41;5.00;;;2.30;;
2001;SDS011;1003;48.002;7.788;2024-01-27T15:00:09;5.93;;;2.70;;
2001;SDS011;1003;48.002;7.788;2024-01-27T15:02:39;6.90;;;3.10;;
2001;SDS011;1003;48.002;7.788;2024-01-27T15:05:08;5.57;;;2.50;;
2001;SDS011;1003;48.002;7.788;2024-01-27T15:07:35;4.63;;;2.50;;
2001;SDS011;1003;48.002;7.788;2024-01-27T15:10:04;6.73;;;3.77;;
2001;SDS011;1003;48.002;7.788;2024-01-27T15:12:31;5.87;;;3.70;;